Terminal Aerodrome Forecast
Issued by NWS Sterling, VA

Current Version | Previous Version | Graphics & Text | Print | Product List | Glossary On
Versions: 1 2 3 4 5 6 7 8 9 10 11 12 13 14 15 16 17 18 19 20 21 22
000
FTUS41 KLWX 220901 AAA
TAFDCA
TAF AMD
KDCA 220901Z 2209/2306 33015G23KT P6SM BKN060
     FM221100 33018G30KT P6SM FEW040 SCT200
     FM221500 34020G31KT P6SM FEW040
     FM222200 34013G20KT P6SM SKC
     FM230000 35010KT P6SM SKC
     FM230300 35005KT P6SM SKC=

USA.gov is the U.S. government's official web portal to all federal, state and local government web resources and services.